アルハンゲリスク の空港の天気 - METARとTAF

Arhangel'Sk ( ULAA / ARH ) - ロシア アルハンゲリスク
飛行場実況気象(Metar)
観測時間07/17 12:00 MSK (07/17 09:00 UTC)
風向・風速東北東 4m/s
視程10km以上
天気現象
なし
気温23℃
湿度47%
気圧1022hPa
METARULAA 170900Z 07004MPS 020V160 CAVOK 23/11 Q1022 R08/CLRD70 NOSIG RMK QFE765/1021
過去の天気等 Google飛行場航空写真 Wunderground天気予報

過去48時間のMETAR

飛行場予報(TAF)
発表時間: 7/17 11:00 MSK (7/17 08:00 UTC)
予報対象時間: 17日12時 MSK ~ 18日12時 MSK
風向・風速北東 3m/s
視程10km以上
なし
17日12時 MSK ~ 17日22時 MSK に一時的に
風向・風速東 3m/s 瞬間風速 11m/s
全天の4割程度の雲 雲底高度 610m
TAF ULAA 170800Z 1709/1809 04003MPS CAVOK
TEMPO 1709/1719 08003G11MPS SCT020